createdAt,value
2022-11-01T00:04:23.866Z,92.10
2022-11-01T00:12:33.480Z,91.90
2022-11-01T00:20:38.721Z,91.90
2022-11-01T00:28:47.011Z,91.90
2022-11-01T00:36:52.333Z,92.10
2022-11-01T00:45:00.299Z,92.20
2022-11-01T00:53:05.681Z,92.30
2022-11-01T01:01:13.571Z,93.10
2022-11-01T01:09:18.969Z,93.80
2022-11-01T01:17:28.798Z,93.90
2022-11-01T01:25:36.648Z,94.50
2022-11-01T01:33:44.623Z,94.30
2022-11-01T01:41:58.881Z,93.60
2022-11-01T01:50:11.684Z,93.60
2022-11-01T01:58:20.645Z,93.70
2022-11-01T02:06:29.351Z,93.50
2022-11-01T02:14:34.937Z,93.30
2022-11-01T02:23:11.256Z,93.20
2022-11-01T02:31:46.132Z,92.90
2022-11-01T02:40:01.055Z,93.20
2022-11-01T02:48:08.504Z,92.90
2022-11-01T02:56:17.069Z,92.90
2022-11-01T03:04:22.368Z,93.00
2022-11-01T03:12:34.169Z,92.80
2022-11-01T03:20:54.764Z,93.10
2022-11-01T03:29:06.836Z,93.70
2022-11-01T03:37:15.289Z,94.10
2022-11-01T03:45:28.319Z,94.40
2022-11-01T03:53:33.841Z,94.40
2022-11-01T04:01:42.037Z,94.10
2022-11-01T04:09:47.628Z,93.80
2022-11-01T04:18:18.110Z,94.10
2022-11-01T04:26:24.885Z,94.10
2022-11-01T04:34:45.229Z,93.70
2022-11-01T04:42:50.423Z,93.40
2022-11-01T04:50:58.303Z,93.20
2022-11-01T04:59:03.530Z,93.40
2022-11-01T05:07:13.316Z,93.90
2022-11-01T05:15:18.707Z,93.60
2022-11-01T05:23:26.576Z,93.90
2022-11-01T05:31:31.876Z,94.50
2022-11-01T05:39:39.787Z,93.80
2022-11-01T05:47:45.031Z,93.50
2022-11-01T05:55:55.310Z,93.30
2022-11-01T06:04:02.228Z,93.20
2022-11-01T06:12:10.720Z,92.50
2022-11-01T06:20:16.157Z,92.60
2022-11-01T06:28:24.042Z,92.40
2022-11-01T06:36:29.618Z,92.20
2022-11-01T06:44:37.514Z,92.20
2022-11-01T06:52:42.756Z,93.40
2022-11-01T07:00:50.742Z,93.40
2022-11-01T07:08:55.986Z,93.10
2022-11-01T07:17:03.850Z,92.30
2022-11-01T07:25:10.714Z,92.50
2022-11-01T07:33:18.602Z,92.30
2022-11-01T07:41:23.904Z,91.60
2022-11-01T07:49:33.862Z,91.70
2022-11-01T07:57:40.762Z,91.30
2022-11-01T08:05:49.640Z,91.00
2022-11-01T08:13:59.277Z,91.60
2022-11-01T08:22:12.106Z,91.40
2022-11-01T08:30:18.087Z,90.80
2022-11-01T08:38:25.985Z,91.00
2022-11-01T08:46:31.260Z,91.60
2022-11-01T08:54:39.263Z,91.00
2022-11-01T09:02:44.595Z,90.70
2022-11-01T09:10:52.440Z,90.10
2022-11-01T09:19:01.650Z,90.00
2022-11-01T09:27:10.289Z,90.00
2022-11-01T09:35:15.478Z,90.00
2022-11-01T09:43:26.824Z,86.40
2022-11-01T09:51:32.682Z,84.60
2022-11-01T09:59:47.337Z,84.00
2022-11-01T10:08:04.730Z,81.70
2022-11-01T10:16:19.820Z,78.40
2022-11-01T10:24:30.979Z,75.80
2022-11-01T10:32:44.755Z,77.70
2022-11-01T10:40:56.947Z,82.00
2022-11-01T10:49:12.582Z,83.40
2022-11-01T10:57:25.424Z,85.60
2022-11-01T11:05:35.398Z,88.30
2022-11-01T11:13:45.051Z,90.60
2022-11-01T11:21:56.244Z,90.20
2022-11-01T11:30:05.440Z,90.20
2022-11-01T11:38:17.712Z,90.50
2022-11-01T11:46:24.798Z,90.80
2022-11-01T11:54:37.760Z,91.30
2022-11-01T12:02:44.753Z,90.80
2022-11-01T12:11:00.945Z,90.20
2022-11-01T12:19:06.554Z,89.90
2022-11-01T12:27:18.971Z,89.40
2022-11-01T12:35:33.772Z,88.80
2022-11-01T12:43:53.202Z,88.30
2022-11-01T12:52:03.819Z,89.70
2022-11-01T13:00:18.592Z,89.20
2022-11-01T13:08:33.573Z,89.10
2022-11-01T13:16:47.099Z,89.20
2022-11-01T13:24:54.077Z,88.40
2022-11-01T13:33:09.247Z,89.60
2022-11-01T13:41:24.254Z,88.80
2022-11-01T13:49:59.552Z,87.50
2022-11-01T13:58:05.508Z,88.30
2022-11-01T14:06:37.870Z,88.40
2022-11-01T14:14:56.208Z,87.70
2022-11-01T14:23:55.922Z,87.90
2022-11-01T14:32:02.120Z,87.80
2022-11-01T14:40:33.724Z,87.40
2022-11-01T14:48:42.372Z,87.00
2022-11-01T14:56:55.916Z,88.00
2022-11-01T15:05:01.738Z,86.90
2022-11-01T15:13:10.477Z,86.90
2022-11-01T15:21:22.145Z,86.90
2022-11-01T15:29:33.218Z,87.30
2022-11-01T15:37:39.762Z,87.80
2022-11-01T15:45:49.761Z,88.30
2022-11-01T15:54:01.260Z,88.30
2022-11-01T16:02:19.396Z,88.40
2022-11-01T16:10:27.184Z,88.40
2022-11-01T16:18:37.606Z,88.60
2022-11-01T16:26:56.180Z,89.10
2022-11-01T16:35:32.002Z,90.10
2022-11-01T16:43:38.661Z,90.00
2022-11-01T16:51:46.601Z,90.00
2022-11-01T16:59:51.923Z,89.90
2022-11-01T17:07:59.788Z,89.90
2022-11-01T17:16:06.276Z,90.10
2022-11-01T17:24:15.387Z,90.20
2022-11-01T17:32:20.668Z,90.20
2022-11-01T17:40:29.617Z,90.10
2022-11-01T17:48:35.274Z,90.00
2022-11-01T17:56:46.124Z,90.00
2022-11-01T18:04:51.411Z,90.10
2022-11-01T18:13:12.154Z,90.10
2022-11-01T18:21:25.066Z,90.20
2022-11-01T18:29:37.645Z,90.20
2022-11-01T18:37:51.360Z,90.20
2022-11-01T18:54:27.483Z,90.10
2022-11-01T19:02:36.060Z,90.10
2022-11-01T19:10:43.173Z,90.00
2022-11-01T19:18:52.604Z,90.10
2022-11-01T19:26:59.173Z,90.20
2022-11-01T19:35:07.996Z,90.20
2022-11-01T19:43:16.783Z,90.30
2022-11-01T19:51:26.930Z,90.30
2022-11-01T19:59:32.237Z,90.40
2022-11-01T20:07:40.086Z,90.30
2022-11-01T20:15:45.408Z,90.30
2022-11-01T20:23:53.391Z,90.20
2022-11-01T20:31:59.087Z,90.10
2022-11-01T20:40:07.994Z,90.10
2022-11-01T20:48:13.356Z,90.10
2022-11-01T20:56:21.341Z,90.00
2022-11-01T21:04:28.219Z,89.90
2022-11-01T21:12:51.269Z,90.00
2022-11-01T21:20:59.027Z,90.20
2022-11-01T21:29:22.323Z,90.40
2022-11-01T21:37:31.455Z,90.60
2022-11-01T21:45:39.992Z,90.60
2022-11-01T21:53:45.326Z,90.60
2022-11-01T22:01:53.614Z,90.60
2022-11-01T22:09:58.928Z,90.70
2022-11-01T22:18:07.261Z,90.90
2022-11-01T22:26:12.512Z,90.70
2022-11-01T22:34:21.379Z,90.70
2022-11-01T22:42:27.953Z,90.80
2022-11-01T22:50:35.913Z,91.40
2022-11-01T22:58:41.805Z,91.60
2022-11-01T23:06:50.577Z,91.70
2022-11-01T23:14:56.121Z,92.20
2022-11-01T23:23:04.861Z,91.90
2022-11-01T23:31:10.604Z,91.60
2022-11-01T23:39:18.676Z,91.70
2022-11-01T23:47:27.857Z,91.60
2022-11-01T23:55:39.040Z,91.50
